createdAt,value
2023-03-30T00:00:08.128Z,3.22
2023-03-30T00:05:09.090Z,3.10
2023-03-30T00:10:08.201Z,6.22
2023-03-30T00:15:08.225Z,8.70
2023-03-30T00:20:08.303Z,4.30
2023-03-30T00:25:08.333Z,7.57
2023-03-30T00:30:08.383Z,3.30
2023-03-30T00:35:08.430Z,4.38
2023-03-30T00:40:08.456Z,6.18
2023-03-30T00:45:08.468Z,5.50
2023-03-30T00:50:08.480Z,8.20
2023-03-30T00:55:08.562Z,4.57
2023-03-30T01:00:08.655Z,4.85
2023-03-30T01:05:08.684Z,3.25
2023-03-30T01:10:08.752Z,3.90
2023-03-30T01:15:08.856Z,4.32
2023-03-30T01:20:08.924Z,3.05
2023-03-30T01:25:08.992Z,3.92
2023-03-30T01:30:07.972Z,6.18
2023-03-30T01:35:08.009Z,2.58
2023-03-30T01:40:08.110Z,4.07
2023-03-30T01:45:14.144Z,2.35
2023-03-30T01:50:08.131Z,4.90
2023-03-30T01:55:08.186Z,2.10
2023-03-30T02:00:08.241Z,3.35
2023-03-30T02:05:08.296Z,2.50
2023-03-30T02:10:08.348Z,4.57
2023-03-30T02:15:08.384Z,2.53
2023-03-30T02:20:08.419Z,5.55
2023-03-30T02:25:08.447Z,4.85
2023-03-30T02:30:08.508Z,4.35
2023-03-30T02:35:08.611Z,4.78
2023-03-30T02:40:08.685Z,6.75
2023-03-30T02:45:17.904Z,4.30
2023-03-30T02:50:07.985Z,7.63
2023-03-30T02:55:07.986Z,4.13
2023-03-30T03:00:07.995Z,3.47
2023-03-30T03:05:08.084Z,2.20
2023-03-30T03:10:08.111Z,2.22
2023-03-30T03:15:08.153Z,5.47
2023-03-30T03:20:08.218Z,3.08
2023-03-30T03:25:08.252Z,5.95
2023-03-30T03:30:08.358Z,2.50
2023-03-30T03:35:08.393Z,2.95
2023-03-30T03:40:08.399Z,2.88
2023-03-30T03:45:08.502Z,1.85
2023-03-30T03:50:08.551Z,2.05
2023-03-30T03:55:08.601Z,2.00
2023-03-30T04:00:08.640Z,5.45
2023-03-30T04:05:02.902Z,4.63
2023-03-30T04:10:02.208Z,4.78
2023-03-30T04:15:02.462Z,2.58
2023-03-30T04:20:03.769Z,2.17
2023-03-30T04:25:03.865Z,2.58
2023-03-30T04:30:03.119Z,3.85
2023-03-30T04:35:02.305Z,5.57
2023-03-30T04:40:02.582Z,2.20
2023-03-30T04:45:02.778Z,3.78
2023-03-30T04:50:03.117Z,1.98
2023-03-30T04:55:02.347Z,2.78
2023-03-30T05:00:02.547Z,2.85
2023-03-30T05:05:02.785Z,3.80
2023-03-30T05:10:02.936Z,3.95
2023-03-30T05:15:02.189Z,3.08
2023-03-30T05:20:02.444Z,3.97
2023-03-30T05:25:02.709Z,3.25
2023-03-30T05:30:02.921Z,3.63
2023-03-30T05:35:03.070Z,3.70
2023-03-30T05:40:02.220Z,3.83
2023-03-30T05:45:02.484Z,3.20
2023-03-30T05:50:02.593Z,3.80
2023-03-30T05:55:02.790Z,2.92
2023-03-30T06:00:02.954Z,3.33
2023-03-30T06:05:02.667Z,5.50
2023-03-30T06:10:02.937Z,4.13
2023-03-30T06:15:03.444Z,5.55
2023-03-30T06:20:02.669Z,3.80
2023-03-30T06:25:02.867Z,3.88
2023-03-30T06:30:03.301Z,6.50
2023-03-30T06:35:02.489Z,3.58
2023-03-30T06:40:02.803Z,4.65
2023-03-30T06:45:03.345Z,3.03
2023-03-30T06:50:02.487Z,4.75
2023-03-30T06:55:02.629Z,2.72
2023-03-30T07:00:02.879Z,5.22
2023-03-30T07:05:03.102Z,3.50
2023-03-30T07:10:02.565Z,4.55
2023-03-30T07:15:02.771Z,4.82
2023-03-30T07:20:02.980Z,5.55
2023-03-30T07:25:02.613Z,3.75
2023-03-30T07:30:13.850Z,5.88
2023-03-30T07:35:02.181Z,4.88
2023-03-30T07:40:02.311Z,6.47
2023-03-30T07:45:02.424Z,5.53
2023-03-30T07:50:03.030Z,6.97
2023-03-30T07:55:02.253Z,9.77
2023-03-30T08:00:02.563Z,5.55
2023-03-30T08:05:03.063Z,10.68
2023-03-30T08:10:02.400Z,3.83
2023-03-30T08:15:02.722Z,7.38
2023-03-30T08:20:02.894Z,5.38
2023-03-30T08:25:03.143Z,7.68
2023-03-30T08:30:02.377Z,6.38
2023-03-30T08:35:02.616Z,8.15
2023-03-30T08:40:02.797Z,10.13
2023-03-30T08:45:03.001Z,7.65
2023-03-30T08:50:02.180Z,8.73
2023-03-30T08:55:02.343Z,11.60
2023-03-30T09:00:02.617Z,7.50
2023-03-30T09:05:12.655Z,9.73
2023-03-30T09:10:02.922Z,9.05
2023-03-30T09:15:03.012Z,10.93
2023-03-30T09:20:02.299Z,12.02
2023-03-30T09:25:02.628Z,8.90
2023-03-30T09:30:02.845Z,11.52
2023-03-30T09:35:03.155Z,16.58
2023-03-30T09:40:02.450Z,9.32
2023-03-30T09:45:02.590Z,13.40
2023-03-30T09:50:02.744Z,7.47
2023-03-30T09:55:03.079Z,9.30
2023-03-30T10:00:02.284Z,10.30
2023-03-30T10:05:02.737Z,8.52
2023-03-30T10:10:03.457Z,10.10
2023-03-30T10:15:02.778Z,9.98
2023-03-30T10:20:13.304Z,5.75
2023-03-30T10:25:03.063Z,12.07
2023-03-30T10:30:02.306Z,9.82
2023-03-30T10:35:02.708Z,9.20
2023-03-30T10:40:03.040Z,9.82
2023-03-30T10:45:02.205Z,17.42
2023-03-30T10:50:05.255Z,11.32
2023-03-30T10:55:02.884Z,9.30
2023-03-30T11:00:03.287Z,22.80
2023-03-30T11:05:02.592Z,22.45
2023-03-30T11:10:02.941Z,10.02
2023-03-30T11:15:02.276Z,11.10
2023-03-30T11:20:02.523Z,8.40
2023-03-30T11:25:02.718Z,8.75
2023-03-30T11:30:02.958Z,7.30
2023-03-30T11:35:05.055Z,15.50
2023-03-30T11:40:02.292Z,13.40
2023-03-30T11:45:02.754Z,26.65
2023-03-30T11:50:02.932Z,9.15
2023-03-30T11:55:04.086Z,9.57
2023-03-30T12:00:02.686Z,9.60
2023-03-30T12:05:02.914Z,10.57
2023-03-30T12:10:04.057Z,8.68
2023-03-30T12:15:02.197Z,13.70
2023-03-30T12:20:02.487Z,10.63
2023-03-30T12:25:03.131Z,16.10
2023-03-30T12:30:03.663Z,10.13
2023-03-30T12:35:03.079Z,18.95
2023-03-30T12:40:02.376Z,11.30
2023-03-30T12:45:02.652Z,11.35
2023-03-30T12:50:11.809Z,13.10
2023-03-30T12:55:03.491Z,9.95
2023-03-30T13:00:02.694Z,10.07
2023-03-30T13:05:03.462Z,11.30
2023-03-30T13:10:04.845Z,7.63
2023-03-30T13:15:02.583Z,7.38
2023-03-30T13:20:02.740Z,8.05
2023-03-30T13:25:02.963Z,7.57
2023-03-30T13:30:05.645Z,10.57
2023-03-30T13:35:07.312Z,7.78
2023-03-30T13:40:03.114Z,10.40
2023-03-30T13:45:02.410Z,12.20
2023-03-30T13:50:02.606Z,8.88
2023-03-30T13:55:02.868Z,8.35
2023-03-30T14:00:03.069Z,12.70
2023-03-30T14:05:02.311Z,10.57
2023-03-30T14:10:02.495Z,12.02
2023-03-30T14:15:02.820Z,9.65
2023-03-30T14:20:03.710Z,9.45
2023-03-30T14:25:02.870Z,7.38
2023-03-30T14:30:03.134Z,11.00
2023-03-30T14:35:02.448Z,8.63
2023-03-30T14:40:02.631Z,11.68
2023-03-30T14:45:02.902Z,12.35
2023-03-30T14:50:03.116Z,8.90
2023-03-30T14:55:08.607Z,9.63
2023-03-30T15:00:02.237Z,11.77
2023-03-30T15:05:02.414Z,10.73
2023-03-30T15:10:02.521Z,13.68
2023-03-30T15:15:02.693Z,11.30
2023-03-30T15:20:03.107Z,8.50
2023-03-30T15:25:02.276Z,9.40
2023-03-30T15:30:02.870Z,7.93
2023-03-30T15:35:03.982Z,5.13
2023-03-30T15:40:02.337Z,7.30
2023-03-30T15:45:12.423Z,5.68
2023-03-30T15:50:02.601Z,8.70
2023-03-30T15:55:12.918Z,0
2023-03-30T16:00:03.109Z,6.68
2023-03-30T16:05:02.360Z,7.72
2023-03-30T16:10:02.514Z,7.22
2023-03-30T16:15:02.722Z,12.95
2023-03-30T16:20:05.581Z,7.82
2023-03-30T16:25:02.350Z,4.68
2023-03-30T16:30:02.489Z,7.68
2023-03-30T16:35:02.758Z,6.53
2023-03-30T16:40:03.009Z,7.20
2023-03-30T16:45:02.220Z,8.95
2023-03-30T16:50:02.375Z,7.93
2023-03-30T16:55:02.486Z,8.60
2023-03-30T17:00:02.624Z,10.60
2023-03-30T17:05:02.786Z,9.45
2023-03-30T17:10:03.023Z,7.15
2023-03-30T17:15:02.387Z,5.57
2023-03-30T17:20:02.600Z,6.55
2023-03-30T17:25:02.872Z,5.75
2023-03-30T17:30:03.408Z,6.72
2023-03-30T17:35:02.623Z,10.43
2023-03-30T17:40:02.794Z,8.55
2023-03-30T17:45:02.964Z,4.88
2023-03-30T17:50:02.236Z,3.10
2023-03-30T17:55:02.432Z,5.07
2023-03-30T18:00:02.643Z,6.70
2023-03-30T18:05:02.967Z,4.68
2023-03-30T18:10:02.259Z,8.45
2023-03-30T18:15:02.454Z,8.27
2023-03-30T18:20:02.744Z,11.70
2023-03-30T18:25:02.938Z,10.13
2023-03-30T18:30:02.137Z,5.25
2023-03-30T18:35:02.310Z,8.07
2023-03-30T18:40:02.594Z,4.90
2023-03-30T18:45:02.832Z,3.88
2023-03-30T18:50:03.021Z,4.97
2023-03-30T18:55:02.154Z,7.82
2023-03-30T19:00:02.417Z,5.80
2023-03-30T19:05:02.546Z,7.70
2023-03-30T19:10:02.750Z,8.23
2023-03-30T19:15:02.981Z,10.15
2023-03-30T19:20:02.242Z,5.45
2023-03-30T19:25:02.496Z,10.07
2023-03-30T19:30:02.749Z,8.55
2023-03-30T19:35:02.974Z,8.32
2023-03-30T19:40:02.230Z,6.80
2023-03-30T19:45:02.407Z,17.38
2023-03-30T19:50:02.581Z,5.78
2023-03-30T19:55:02.808Z,8.25
2023-03-30T20:00:02.919Z,5.93
2023-03-30T20:05:03.108Z,8.05
2023-03-30T20:10:02.308Z,7.22
2023-03-30T20:15:02.506Z,7.70
2023-03-30T20:20:02.724Z,7.93
2023-03-30T20:25:02.842Z,5.20
2023-03-30T20:30:03.027Z,2.45
2023-03-30T20:35:02.263Z,6.78
2023-03-30T20:40:03.936Z,6.30
2023-03-30T20:45:02.340Z,7.57
2023-03-30T20:50:02.541Z,5.93
2023-03-30T20:55:02.746Z,5.55
2023-03-30T21:00:02.997Z,7.95
2023-03-30T21:05:14.981Z,4.82
2023-03-30T21:10:08.054Z,8.00
2023-03-30T21:15:08.092Z,5.25
2023-03-30T21:20:08.147Z,6.40
2023-03-30T21:25:08.170Z,6.40
2023-03-30T21:30:08.240Z,7.13
2023-03-30T21:35:08.451Z,7.88
2023-03-30T21:40:08.480Z,7.75
2023-03-30T21:45:08.541Z,6.40
2023-03-30T21:50:08.627Z,4.53
2023-03-30T21:55:08.660Z,5.57
2023-03-30T22:00:08.729Z,6.72
2023-03-30T22:05:08.808Z,5.95
2023-03-30T22:10:08.869Z,6.82
2023-03-30T22:15:08.914Z,5.47
2023-03-30T22:20:08.960Z,6.18
2023-03-30T22:25:08.026Z,4.57
2023-03-30T22:30:08.095Z,4.60
2023-03-30T22:35:08.157Z,4.43
2023-03-30T22:40:08.188Z,6.78
2023-03-30T22:45:08.261Z,5.45
2023-03-30T22:50:08.288Z,5.50
2023-03-30T22:55:08.312Z,7.00
2023-03-30T23:01:12.444Z,8.43
2023-03-30T23:05:08.573Z,4.15
2023-03-30T23:10:08.837Z,7.43
2023-03-30T23:15:08.899Z,6.82
2023-03-30T23:20:08.942Z,5.88
2023-03-30T23:25:07.998Z,8.15
2023-03-30T23:30:08.029Z,6.90
2023-03-30T23:35:08.213Z,7.03
2023-03-30T23:40:08.225Z,6.68
2023-03-30T23:45:08.262Z,5.43
2023-03-30T23:50:08.271Z,4.40
2023-03-30T23:55:08.353Z,7.03
